createdAt,value
2023-05-10T00:05:08.857Z,4.06
2023-05-10T00:11:13.873Z,4.05
2023-05-10T00:15:16.539Z,4.05
2023-05-10T00:21:20.700Z,4.05
2023-05-10T00:25:23.488Z,4.05
2023-05-10T00:27:25.305Z,4.05
2023-05-10T00:31:28.153Z,4.05
2023-05-10T00:35:30.536Z,4.05
2023-05-10T00:37:31.808Z,4.05
2023-05-10T00:41:35.430Z,4.05
2023-05-10T00:47:39.843Z,4.05
2023-05-10T00:53:43.858Z,4.05
2023-05-10T00:57:46.076Z,4.05
2023-05-10T01:03:51.146Z,4.04
2023-05-10T01:09:55.801Z,4.04
2023-05-10T01:18:02.112Z,4.04
2023-05-10T01:20:03.661Z,4.04
2023-05-10T01:24:06.401Z,4.04
2023-05-10T01:30:15.797Z,4.04
2023-05-10T01:36:15.808Z,4.04
2023-05-10T01:40:18.604Z,4.04
2023-05-10T01:46:22.694Z,4.04
2023-05-10T01:50:25.711Z,4.04
2023-05-10T01:52:27.148Z,4.04
2023-05-10T01:56:29.378Z,4.04
2023-05-10T02:00:31.916Z,4.04
2023-05-10T02:02:33.402Z,4.04
2023-05-10T02:06:35.894Z,4.04
2023-05-10T02:10:38.238Z,4.04
2023-05-10T02:12:39.719Z,4.03
2023-05-10T02:16:42.692Z,4.03
2023-05-10T02:18:44.063Z,4.03
2023-05-10T02:20:45.717Z,4.03
2023-05-10T02:22:47.509Z,4.03
2023-05-10T02:28:52.502Z,4.03
2023-05-10T02:34:55.924Z,4.04
2023-05-10T02:38:58.807Z,4.03
2023-05-10T02:45:02.949Z,4.03
2023-05-10T02:49:05.897Z,4.03
2023-05-10T02:51:07.453Z,4.03
2023-05-10T02:55:10.554Z,4.03
2023-05-10T02:59:13.389Z,4.02
2023-05-10T03:01:14.960Z,4.03
2023-05-10T03:05:17.803Z,4.03
2023-05-10T03:07:19.344Z,4.03
2023-05-10T03:12:06.060Z,4.02
2023-05-10T03:16:08.622Z,4.02
2023-05-10T03:18:10.419Z,4.02
2023-05-10T03:22:13.295Z,4.02
2023-05-10T03:26:15.735Z,4.02
2023-05-10T03:28:17.448Z,4.02
2023-05-10T03:32:20.180Z,4.02
2023-05-10T03:38:23.671Z,4.02
2023-05-10T03:44:28.583Z,4.02
2023-05-10T03:48:31.126Z,4.02
2023-05-10T03:54:34.981Z,4.02
2023-05-10T03:58:36.862Z,4.02
2023-05-10T04:00:38.448Z,4.02
2023-05-10T04:04:41.326Z,4.02
2023-05-10T04:08:43.456Z,4.02
2023-05-10T04:10:45.049Z,4.02
2023-05-10T04:14:47.068Z,4.02
2023-05-10T04:21:08.796Z,4.02
2023-05-10T04:26:57.620Z,4.02
2023-05-10T04:30:59.375Z,4.02
2023-05-10T04:37:02.234Z,4.01
2023-05-10T04:41:07.024Z,4.01
2023-05-10T04:43:07.535Z,4.02
2023-05-10T04:47:12.561Z,4.01
2023-05-10T04:51:14.005Z,4.01
2023-05-10T04:53:15.917Z,4.02
2023-05-10T04:57:17.137Z,4.01
2023-05-10T05:01:20.315Z,4.01
2023-05-10T05:03:21.529Z,4.01
2023-05-10T05:07:23.759Z,4.01
2023-05-10T05:09:25.645Z,4.01
2023-05-10T05:11:26.606Z,4.01
2023-05-10T05:13:28.204Z,4.01
2023-05-10T05:19:31.241Z,4.01
2023-05-10T05:21:32.176Z,4.01
2023-05-10T05:25:34.445Z,4.01
2023-05-10T05:29:37.754Z,4.02
2023-05-10T05:35:41.196Z,4.02
2023-05-10T05:39:43.950Z,4.03
2023-05-10T05:41:45.258Z,4.03
2023-05-10T05:45:47.756Z,4.04
2023-05-10T05:49:49.635Z,4.04
2023-05-10T05:51:51.464Z,4.04
2023-05-10T05:55:54.608Z,4.05
2023-05-10T06:01:58.799Z,4.06
2023-05-10T06:08:02.546Z,4.05
2023-05-10T06:12:04.782Z,4.04
2023-05-10T06:18:08.948Z,4.04
2023-05-10T06:22:12.007Z,4.05
2023-05-10T06:24:13.368Z,4.05
2023-05-10T06:28:16.234Z,4.07
2023-05-10T06:32:19.036Z,4.09
2023-05-10T06:34:20.557Z,4.09
2023-05-10T06:38:22.957Z,4.1
2023-05-10T06:42:25.857Z,4.11
2023-05-10T06:44:26.700Z,4.11
2023-05-10T06:48:29.322Z,4.12
2023-05-10T06:50:30.417Z,4.12
2023-05-10T06:52:31.794Z,4.12
2023-05-10T06:54:33.284Z,4.13
2023-05-10T07:00:37.675Z,4.13
2023-05-10T07:02:38.561Z,4.14
2023-05-10T07:06:40.985Z,4.14
2023-05-10T07:10:44.204Z,4.15
2023-05-10T07:16:47.717Z,4.16
2023-05-10T07:18:49.337Z,4.16
2023-05-10T07:22:52.326Z,4.16
2023-05-10T07:26:55.015Z,4.17
2023-05-10T07:30:58.084Z,4.17
2023-05-10T07:32:59.846Z,4.17
2023-05-10T07:37:02.456Z,4.18
2023-05-10T07:43:05.711Z,4.18
2023-05-10T07:49:10.530Z,4.19
2023-05-10T07:53:12.929Z,4.19
2023-05-10T07:59:17.294Z,4.19
2023-05-10T08:03:19.561Z,4.19
2023-05-10T08:05:21.038Z,4.19
2023-05-10T08:09:24.104Z,4.19
2023-05-10T08:13:27.113Z,4.2
2023-05-10T08:15:27.947Z,4.19
2023-05-10T08:19:29.718Z,4.2
2023-05-10T08:23:32.380Z,4.2
2023-05-10T08:25:33.408Z,4.2
2023-05-10T08:29:46.560Z,4.2
2023-05-10T08:31:36.980Z,4.2
2023-05-10T08:33:38.719Z,4.2
2023-05-10T08:35:39.895Z,4.2
2023-05-10T08:41:44.917Z,4.2
2023-05-10T08:47:49.867Z,4.2
2023-05-10T08:51:51.644Z,4.2
2023-05-10T08:57:56.300Z,4.19
2023-05-10T09:01:59.074Z,4.19
2023-05-10T09:04:00.162Z,4.19
2023-05-10T09:08:02.956Z,4.19
2023-05-10T09:12:05.818Z,4.18
2023-05-10T09:14:06.921Z,4.19
2023-05-10T09:18:09.768Z,4.19
2023-05-10T09:24:13.552Z,4.18
2023-05-10T09:30:17.575Z,4.18
2023-05-10T09:34:19.407Z,4.18
2023-05-10T09:40:22.919Z,4.18
2023-05-10T09:44:25.848Z,4.18
2023-05-10T09:46:27.401Z,4.18
2023-05-10T09:50:31.495Z,4.18
2023-05-10T09:53:16.796Z,4.18
2023-05-10T09:55:17.767Z,4.18
2023-05-10T10:01:22.515Z,4.17
2023-05-10T10:07:26.285Z,4.17
2023-05-10T10:11:29.110Z,4.17
2023-05-10T10:17:33.807Z,4.17
2023-05-10T10:21:35.704Z,4.17
2023-05-10T10:23:37.231Z,4.17
2023-05-10T10:27:40.434Z,4.17
2023-05-10T10:31:43.164Z,4.17
2023-05-10T10:33:46.244Z,4.17
2023-05-10T10:37:47.399Z,4.17
2023-05-10T10:43:50.869Z,4.17
2023-05-10T10:47:53.429Z,4.17
2023-05-10T10:49:55.201Z,4.17
2023-05-10T10:51:56.440Z,4.17
2023-05-10T10:53:57.905Z,4.17
2023-05-10T11:00:01.808Z,4.17
2023-05-10T11:02:03.582Z,4.17
2023-05-10T11:06:06.219Z,4.17
2023-05-10T11:10:09.108Z,4.16
2023-05-10T11:16:13.653Z,4.16
2023-05-10T11:20:16.422Z,4.16
2023-05-10T11:22:17.765Z,4.16
2023-05-10T11:26:20.691Z,4.16
2023-05-10T11:30:23.629Z,4.16
2023-05-10T11:32:33.820Z,4.16
2023-05-10T11:36:27.508Z,4.16
2023-05-10T11:42:31.713Z,4.16
2023-05-10T11:48:35.666Z,4.16
2023-05-10T11:52:37.461Z,4.16
2023-05-10T11:58:40.690Z,4.16
2023-05-10T12:02:44.272Z,4.16
2023-05-10T12:04:45.267Z,4.16
2023-05-10T12:08:48.108Z,4.16
2023-05-10T12:12:51.318Z,4.16
2023-05-10T12:14:53.011Z,4.16
2023-05-10T12:18:56.101Z,4.15
2023-05-10T12:25:01.119Z,4.16
2023-05-10T12:31:05.265Z,4.15
2023-05-10T12:35:07.255Z,4.15
2023-05-10T12:41:11.610Z,4.15
2023-05-10T12:45:14.135Z,4.15
2023-05-10T12:47:14.997Z,4.15
2023-05-10T12:51:18.200Z,4.15
2023-05-10T12:55:20.571Z,4.15
2023-05-10T12:57:21.365Z,4.15
2023-05-10T13:01:24.851Z,4.14
2023-05-10T13:05:27.216Z,4.15
2023-05-10T13:07:28.795Z,4.15
2023-05-10T13:11:31.465Z,4.15
2023-05-10T13:13:32.732Z,4.15
2023-05-10T13:15:34.281Z,4.15
2023-05-10T13:17:35.723Z,4.14
2023-05-10T13:23:40.454Z,4.14
2023-05-10T13:25:41.916Z,4.14
2023-05-10T13:27:51.380Z,4.14
2023-05-10T13:29:46.619Z,4.14
2023-05-10T13:33:48.685Z,4.14
2023-05-10T13:39:53.208Z,4.14
2023-05-10T13:43:55.745Z,4.14
2023-05-10T13:45:56.886Z,4.14
2023-05-10T13:49:59.051Z,4.14
2023-05-10T13:54:01.913Z,4.14
2023-05-10T13:56:02.820Z,4.14
2023-05-10T14:00:05.565Z,4.14
2023-05-10T14:06:10.316Z,4.14
2023-05-10T14:12:14.831Z,4.14
2023-05-10T14:16:18.093Z,4.14
2023-05-10T14:22:22.071Z,4.14
2023-05-10T14:26:24.848Z,4.14
2023-05-10T14:28:26.237Z,4.13
2023-05-10T14:32:29.314Z,4.13
2023-05-10T14:36:32.482Z,4.13
2023-05-10T14:38:34.264Z,4.13
2023-05-10T14:42:36.471Z,4.13
2023-05-10T14:48:41.204Z,4.13
2023-05-10T14:54:46.373Z,4.13
2023-05-10T14:58:48.955Z,4.13
2023-05-10T15:04:53.362Z,4.13
2023-05-10T15:08:56.801Z,4.13
2023-05-10T15:10:58.173Z,4.12
2023-05-10T15:15:09.597Z,4.12
2023-05-10T15:19:04.499Z,4.13
2023-05-10T15:21:14.747Z,4.13
2023-05-10T15:25:07.972Z,4.12
2023-05-10T15:31:12.051Z,4.12
2023-05-10T15:37:16.068Z,4.12
2023-05-10T15:41:19.655Z,4.12
2023-05-10T15:47:23.319Z,4.12
2023-05-10T15:51:36.595Z,4.12
2023-05-10T15:53:27.300Z,4.12
2023-05-10T15:57:29.372Z,4.12
2023-05-10T16:01:32.968Z,4.12
2023-05-10T16:03:36.718Z,4.12
2023-05-10T16:07:37.325Z,4.16
2023-05-10T16:11:39.880Z,4.16
2023-05-10T16:13:41.548Z,4.16
2023-05-10T16:17:43.458Z,4.17
2023-05-10T16:19:44.415Z,4.17
2023-05-10T16:21:46.170Z,4.17
2023-05-10T16:23:47.933Z,4.17
2023-05-10T16:29:51.815Z,4.19
2023-05-10T16:31:52.808Z,4.19
2023-05-10T16:35:55.595Z,4.17
2023-05-10T16:38:40.977Z,4.17
2023-05-10T16:40:42.286Z,4.17
2023-05-10T16:44:45.021Z,4.17
2023-05-10T16:46:46.694Z,4.17
2023-05-10T16:50:49.914Z,4.17
2023-05-10T16:54:51.951Z,4.17
2023-05-10T16:56:53.321Z,4.17
2023-05-10T17:00:55.486Z,4.16
2023-05-10T17:07:08.991Z,4.16
2023-05-10T17:13:11.657Z,4.16
2023-05-10T17:17:06.060Z,4.16
2023-05-10T17:23:09.392Z,4.16
2023-05-10T17:27:12.139Z,4.16
2023-05-10T17:29:13.589Z,4.16
2023-05-10T17:33:16.323Z,4.16
2023-05-10T17:37:18.440Z,4.16
2023-05-10T17:39:19.748Z,4.16
2023-05-10T17:43:22.254Z,4.16
2023-05-10T17:47:25.470Z,4.16
2023-05-10T17:49:26.678Z,4.16
2023-05-10T17:53:29.571Z,4.16
2023-05-10T17:55:30.489Z,4.16
2023-05-10T17:57:31.689Z,4.16
2023-05-10T17:59:32.890Z,4.15
2023-05-10T18:05:36.931Z,4.15
2023-05-10T18:07:38.392Z,4.15
2023-05-10T18:11:40.805Z,4.15
2023-05-10T18:15:43.317Z,4.15
2023-05-10T18:21:46.866Z,4.15
2023-05-10T18:25:49.776Z,4.15
2023-05-10T18:27:51.176Z,4.15
2023-05-10T18:31:54.227Z,4.15
2023-05-10T18:35:56.782Z,4.14
2023-05-10T18:37:57.783Z,4.15
2023-05-10T18:42:00.847Z,4.15
2023-05-10T18:48:04.805Z,4.14
2023-05-10T18:54:08.724Z,4.14
2023-05-10T18:58:11.304Z,4.14
2023-05-10T19:04:15.465Z,4.14
2023-05-10T19:08:17.685Z,4.14
2023-05-10T19:10:18.622Z,4.14
2023-05-10T19:14:21.481Z,4.14
2023-05-10T19:18:24.437Z,4.14
2023-05-10T19:20:26.033Z,4.14
2023-05-10T19:24:28.738Z,4.14
2023-05-10T19:30:32.920Z,4.14
2023-05-10T19:36:37.313Z,4.14
2023-05-10T19:40:39.401Z,4.14
2023-05-10T19:46:44.860Z,4.13
2023-05-10T19:50:47.445Z,4.14
2023-05-10T19:52:49.029Z,4.13
2023-05-10T19:56:51.398Z,4.13
2023-05-10T20:00:53.263Z,4.13
2023-05-10T20:02:54.365Z,4.13
2023-05-10T20:06:57.780Z,4.13
2023-05-10T20:10:59.860Z,4.13
2023-05-10T20:13:01.065Z,4.13
2023-05-10T20:17:03.553Z,4.13
2023-05-10T20:19:04.466Z,4.13
2023-05-10T20:21:05.859Z,4.13
2023-05-10T20:23:07.180Z,4.13
2023-05-10T20:29:11.511Z,4.13
2023-05-10T20:35:14.795Z,4.13
2023-05-10T20:39:16.954Z,4.13
2023-05-10T20:45:21.388Z,4.12
2023-05-10T20:51:25.553Z,4.12
2023-05-10T20:55:36.641Z,4.12
2023-05-10T21:01:33.397Z,4.12
2023-05-10T21:05:36.669Z,4.12
2023-05-10T21:07:37.667Z,4.12
2023-05-10T21:11:40.321Z,4.12
2023-05-10T21:17:45.553Z,4.12
2023-05-10T21:21:48.626Z,4.12
2023-05-10T21:23:50.188Z,4.12
2023-05-10T21:27:52.977Z,4.12
2023-05-10T21:31:56.011Z,4.12
2023-05-10T21:33:57.428Z,4.12
2023-05-10T21:37:59.936Z,4.12
2023-05-10T21:42:02.141Z,4.12
2023-05-10T21:44:04.014Z,4.12
2023-05-10T21:48:06.827Z,4.12
2023-05-10T21:50:08.554Z,4.11
2023-05-10T21:52:09.487Z,4.12
2023-05-10T21:54:10.954Z,4.12
2023-05-10T22:00:14.634Z,4.11
2023-05-10T22:02:16.263Z,4.11
2023-05-10T22:06:19.376Z,4.11
2023-05-10T22:10:22.997Z,4.11
2023-05-10T22:16:26.754Z,4.11
2023-05-10T22:20:29.265Z,4.11
2023-05-10T22:22:31.078Z,4.11
2023-05-10T22:26:34.114Z,4.11
2023-05-10T22:30:37.552Z,4.11
2023-05-10T22:32:38.575Z,4.11
2023-05-10T22:36:41.296Z,4.1
2023-05-10T22:42:45.877Z,4.1
2023-05-10T22:46:48.521Z,4.1
2023-05-10T22:48:50.440Z,4.11
2023-05-10T22:52:53.608Z,4.1
2023-05-10T22:58:57.540Z,4.11
2023-05-10T23:03:00.675Z,4.1
2023-05-10T23:05:01.855Z,4.1
2023-05-10T23:09:04.224Z,4.11
2023-05-10T23:13:06.968Z,4.1
2023-05-10T23:15:08.757Z,4.1
2023-05-10T23:19:11.538Z,4.1
2023-05-10T23:25:59.879Z,4.1
2023-05-10T23:30:01.979Z,4.1
2023-05-10T23:36:06.147Z,4.1
2023-05-10T23:40:09.107Z,4.1
2023-05-10T23:42:10.145Z,4.1
2023-05-10T23:46:13.417Z,4.1
2023-05-10T23:50:15.920Z,4.1
2023-05-10T23:52:17.734Z,4.1
2023-05-10T23:56:20.632Z,4.1
